createdAt,value
2022-09-16T00:02:07.715Z,21.45
2022-09-16T00:04:54.674Z,18.70
2022-09-16T00:07:34.668Z,21.42
2022-09-16T00:10:21.654Z,22.60
2022-09-16T00:13:02.664Z,20.23
2022-09-16T00:15:54.673Z,20.20
2022-09-16T00:18:27.779Z,20.52
2022-09-16T00:21:15.653Z,21.40
2022-09-16T00:23:48.762Z,20.23
2022-09-16T00:26:42.683Z,19.73
2022-09-16T00:29:29.638Z,20.05
2022-09-16T00:32:10.669Z,22.27
2022-09-16T00:35:04.662Z,21.15
2022-09-16T00:37:51.678Z,20.52
2022-09-16T00:40:24.887Z,19.60
2022-09-16T00:43:12.675Z,20.40
2022-09-16T00:45:45.771Z,22.37
2022-09-16T00:48:36.662Z,20.20
2022-09-16T00:51:13.798Z,19.17
2022-09-16T00:54:06.669Z,19.35
2022-09-16T00:56:44.769Z,20.60
2022-09-16T00:59:40.682Z,20.83
2022-09-16T01:02:17.820Z,20.33
2022-09-16T01:05:15.687Z,22.08
2022-09-16T01:07:57.663Z,21.55
2022-09-16T01:10:48.699Z,19.23
2022-09-16T01:13:22.813Z,19.58
2022-09-16T01:16:32.750Z,19.25
2022-09-16T01:19:33.868Z,20.80
2022-09-16T01:22:32.708Z,20.77
2022-09-16T01:25:11.805Z,20.75
2022-09-16T01:28:29.711Z,19.75
2022-09-16T01:31:31.786Z,20.73
2022-09-16T01:34:43.696Z,20.73
2022-09-16T01:37:23.705Z,19.40
2022-09-16T01:40:30.753Z,21.30
2022-09-16T01:43:23.702Z,19.40
2022-09-16T01:46:15.759Z,18.60
2022-09-16T01:49:15.718Z,20.13
2022-09-16T01:52:40.712Z,20.83
2022-09-16T01:55:20.817Z,20.23
2022-09-16T01:58:22.702Z,18.88
2022-09-16T02:01:06.722Z,20.08
2022-09-16T02:04:05.708Z,20.05
2022-09-16T02:06:56.713Z,20.98
2022-09-16T02:09:36.806Z,20.67
2022-09-16T02:12:31.708Z,20.35
2022-09-16T02:15:11.811Z,20.63
2022-09-16T02:18:21.721Z,21.88
2022-09-16T02:21:05.744Z,19.05
2022-09-16T02:24:04.706Z,18.63
2022-09-16T02:27:07.749Z,20.75
2022-09-16T02:30:00.720Z,19.85
2022-09-16T02:32:35.806Z,20.98
2022-09-16T02:35:24.738Z,20.20
2022-09-16T02:38:10.835Z,19.15
2022-09-16T02:41:02.733Z,19.77
2022-09-16T02:43:36.887Z,19.77
2022-09-16T02:46:33.855Z,21.08
2022-09-16T02:49:19.874Z,19.90
2022-09-16T02:52:18.717Z,21.15
2022-09-16T02:54:54.819Z,19.65
2022-09-16T02:57:41.729Z,20.98
2022-09-16T03:00:22.744Z,20.33
2022-09-16T03:03:16.739Z,19.63
2022-09-16T03:06:15.767Z,16.33
2022-09-16T03:08:49.836Z,17.50
2022-09-16T03:11:51.735Z,16.30
2022-09-16T03:14:49.766Z,17.33
2022-09-16T03:18:13.766Z,17.23
2022-09-16T03:21:17.758Z,15.35
2022-09-16T03:24:42.757Z,17.38
2022-09-16T03:27:22.853Z,17.70
2022-09-16T03:30:16.741Z,15.77
2022-09-16T03:33:10.751Z,16.63
2022-09-16T03:36:07.739Z,17.65
2022-09-16T03:38:58.775Z,17.67
2022-09-16T03:41:45.754Z,18.40
2022-09-16T03:44:43.792Z,17.63
2022-09-16T03:47:16.870Z,18.38
2022-09-16T03:50:03.746Z,17.55
2022-09-16T03:52:43.778Z,16.55
2022-09-16T03:55:37.762Z,18.00
2022-09-16T03:58:24.769Z,18.05
2022-09-16T04:00:57.868Z,15.52
2022-09-16T04:03:44.759Z,15.30
2022-09-16T04:06:24.769Z,15.48
2022-09-16T04:09:19.764Z,15.02
2022-09-16T04:12:06.783Z,16.33
2022-09-16T04:14:43.379Z,13.52
2022-09-16T04:17:30.778Z,15.80
2022-09-16T04:20:03.901Z,16.08
2022-09-16T04:22:50.779Z,14.73
2022-09-16T04:25:24.270Z,14.23
2022-09-16T04:28:10.771Z,16.92
2022-09-16T04:30:43.993Z,17.92
2022-09-16T04:33:35.791Z,15.05
2022-09-16T04:36:20.904Z,15.07
2022-09-16T04:39:07.799Z,21.75
2022-09-16T04:41:47.770Z,22.10
2022-09-16T04:44:41.789Z,21.20
2022-09-16T04:47:35.794Z,17.08
2022-09-16T04:50:29.792Z,16.75
2022-09-16T04:53:23.797Z,16.00
2022-09-16T04:56:16.776Z,16.25
2022-09-16T04:58:52.375Z,19.40
2022-09-16T05:01:41.898Z,18.10
2022-09-16T05:04:23.809Z,15.80
2022-09-16T05:07:17.792Z,16.20
2022-09-16T05:10:11.826Z,17.05
2022-09-16T05:13:06.825Z,15.63
2022-09-16T05:16:00.894Z,18.35
2022-09-16T05:18:49.813Z,14.85
2022-09-16T05:21:31.788Z,15.55
2022-09-16T05:24:26.807Z,18.95
2022-09-16T05:27:20.792Z,17.13
2022-09-16T05:30:07.834Z,16.63
2022-09-16T05:32:40.920Z,15.80
2022-09-16T05:35:27.797Z,16.35
2022-09-16T05:38:10.816Z,15.60
2022-09-16T05:41:04.812Z,17.50
2022-09-16T05:43:51.821Z,16.10
2022-09-16T05:46:35.828Z,16.58
2022-09-16T05:49:29.825Z,15.43
2022-09-16T05:52:16.817Z,15.13
2022-09-16T05:54:49.915Z,15.13
2022-09-16T05:57:36.855Z,18.52
2022-09-16T06:00:11.960Z,15.82
2022-09-16T06:02:58.875Z,17.50
2022-09-16T06:05:42.576Z,16.13
2022-09-16T06:08:31.840Z,16.92
2022-09-16T06:11:15.815Z,19.50
2022-09-16T06:14:05.827Z,17.80
2022-09-16T06:16:46.836Z,16.52
2022-09-16T06:19:40.835Z,15.98
2022-09-16T06:22:27.831Z,17.27
2022-09-16T06:25:00.936Z,17.50
2022-09-16T06:27:54.814Z,16.65
2022-09-16T06:30:48.892Z,18.23
2022-09-16T06:33:35.830Z,18.13
2022-09-16T06:36:12.493Z,16.27
2022-09-16T06:38:58.838Z,17.52
2022-09-16T06:41:31.959Z,17.80
2022-09-16T06:44:18.835Z,18.05
2022-09-16T06:46:58.838Z,17.05
2022-09-16T06:49:53.863Z,16.80
2022-09-16T06:52:40.833Z,17.20
2022-09-16T06:55:13.953Z,18.13
2022-09-16T06:58:02.847Z,17.17
2022-09-16T07:00:42.852Z,18.50
2022-09-16T07:03:36.887Z,15.95
2022-09-16T07:07:04.912Z,20.80
2022-09-16T07:09:39.851Z,18.98
2022-09-16T07:12:20.850Z,19.10
2022-09-16T07:15:14.870Z,16.73
2022-09-16T07:18:01.858Z,16.40
2022-09-16T07:20:42.880Z,16.45
2022-09-16T07:23:29.869Z,15.57
2022-09-16T07:26:13.030Z,15.05
2022-09-16T07:29:08.866Z,15.00
2022-09-16T07:31:55.886Z,17.50
2022-09-16T07:34:29.027Z,16.33
2022-09-16T07:37:15.870Z,17.27
2022-09-16T07:39:56.920Z,17.90
2022-09-16T07:42:50.865Z,16.63
2022-09-16T07:45:37.913Z,17.27
2022-09-16T07:48:10.964Z,16.80
2022-09-16T07:51:05.868Z,17.13
2022-09-16T07:53:40.105Z,17.25
2022-09-16T07:56:29.900Z,16.30
2022-09-16T07:59:04.008Z,17.70
2022-09-16T08:01:51.028Z,17.25
2022-09-16T08:04:34.871Z,17.75
2022-09-16T08:07:28.892Z,17.00
2022-09-16T08:10:15.890Z,16.80
2022-09-16T08:12:49.014Z,18.90
2022-09-16T08:15:35.897Z,17.75
2022-09-16T08:18:09.866Z,18.23
2022-09-16T08:20:57.036Z,17.05
2022-09-16T08:23:29.984Z,17.95
2022-09-16T08:26:18.911Z,18.77
2022-09-16T08:29:10.470Z,18.05
2022-09-16T08:31:58.949Z,17.60
2022-09-16T08:34:39.887Z,17.33
2022-09-16T08:37:33.895Z,17.55
2022-09-16T08:40:34.899Z,16.35
2022-09-16T08:44:04.915Z,18.55
2022-09-16T08:47:14.940Z,17.75
2022-09-16T08:50:03.930Z,16.27
2022-09-16T08:52:49.945Z,16.63
2022-09-16T08:55:52.935Z,17.42
2022-09-16T08:58:48.959Z,15.18
2022-09-16T09:01:43.286Z,15.40
2022-09-16T09:04:29.973Z,14.35
2022-09-16T09:07:25.059Z,15.88
2022-09-16T09:10:30.942Z,16.77
2022-09-16T09:13:43.957Z,14.02
2022-09-16T09:17:16.977Z,15.73
2022-09-16T09:20:16.960Z,13.73
2022-09-16T09:23:24.939Z,13.50
2022-09-16T09:26:06.115Z,15.57
2022-09-16T09:28:59.947Z,16.88
2022-09-16T09:32:27.003Z,13.98
2022-09-16T09:35:25.956Z,15.27
2022-09-16T09:38:30.982Z,16.90
2022-09-16T09:41:13.236Z,13.30
2022-09-16T09:44:07.969Z,13.57
2022-09-16T09:46:52.067Z,14.52
2022-09-16T09:49:52.969Z,13.82
2022-09-16T09:52:42.985Z,16.40
2022-09-16T09:55:32.945Z,16.73
2022-09-16T09:58:35.153Z,14.52
2022-09-16T10:01:23.001Z,15.45
2022-09-16T10:04:07.010Z,16.42
2022-09-16T10:07:03.986Z,16.70
2022-09-16T10:10:01.983Z,14.88
2022-09-16T10:12:40.085Z,17.17
2022-09-16T10:15:34.978Z,18.92
2022-09-16T10:18:15.978Z,15.88
2022-09-16T10:21:11.975Z,17.23
2022-09-16T10:23:52.037Z,14.93
2022-09-16T10:26:53.983Z,15.82
2022-09-16T10:29:47.992Z,15.00
2022-09-16T10:32:34.984Z,14.38
2022-09-16T10:35:21.010Z,15.35
2022-09-16T10:38:26.988Z,15.80
2022-09-16T10:41:34.989Z,14.48
2022-09-16T10:44:27.009Z,15.60
2022-09-16T10:47:25.012Z,13.90
2022-09-16T10:50:05.623Z,12.95
2022-09-16T10:52:54.997Z,16.40
2022-09-16T10:55:45.013Z,14.45
2022-09-16T10:58:39.006Z,14.00
2022-09-16T11:01:57.248Z,15.93
2022-09-16T11:04:56.019Z,14.68
2022-09-16T11:08:05.019Z,16.38
2022-09-16T11:10:58.022Z,14.32
2022-09-16T11:13:46.097Z,27.27
2022-09-16T11:17:00.025Z,14.88
2022-09-16T11:19:45.199Z,13.93
2022-09-16T11:23:13.042Z,17.60
2022-09-16T11:26:11.008Z,14.98
2022-09-16T11:29:40.024Z,14.43
2022-09-16T11:32:42.105Z,13.05
2022-09-16T11:35:39.023Z,13.27
2022-09-16T11:38:42.360Z,14.32
2022-09-16T11:41:45.033Z,12.18
2022-09-16T11:44:40.046Z,13.10
2022-09-16T11:47:40.881Z,14.25
2022-09-16T11:50:15.463Z,15.00
2022-09-16T11:53:30.270Z,15.82
2022-09-16T11:56:32.118Z,12.93
2022-09-16T11:59:27.010Z,13.50
2022-09-16T12:02:21.098Z,15.82
2022-09-16T12:05:20.037Z,15.35
2022-09-16T12:07:53.284Z,13.52
2022-09-16T12:10:46.037Z,13.13
2022-09-16T12:13:32.148Z,14.27
2022-09-16T12:16:29.310Z,15.32
2022-09-16T12:19:17.035Z,15.00
2022-09-16T12:22:37.053Z,16.05
2022-09-16T12:25:34.027Z,15.05
2022-09-16T12:28:24.061Z,14.55
2022-09-16T12:31:49.054Z,19.48
2022-09-16T12:34:30.166Z,15.43
2022-09-16T12:37:17.034Z,13.23
2022-09-16T12:39:57.091Z,15.45
2022-09-16T12:43:15.206Z,16.38
2022-09-16T12:46:41.141Z,15.40
2022-09-16T12:49:30.072Z,12.32
2022-09-16T12:52:28.234Z,12.82
2022-09-16T12:55:21.050Z,33.05
2022-09-16T12:58:12.157Z,30.60
2022-09-16T13:01:08.065Z,16.98
2022-09-16T13:03:54.109Z,15.40
2022-09-16T13:06:51.084Z,20.50
2022-09-16T13:09:49.071Z,13.90
2022-09-16T13:12:45.080Z,15.07
2022-09-16T13:15:45.136Z,16.65
2022-09-16T13:18:47.083Z,12.45
2022-09-16T13:21:34.197Z,13.13
2022-09-16T13:24:24.097Z,14.98
2022-09-16T13:26:57.662Z,15.50
2022-09-16T13:29:44.174Z,15.00
2022-09-16T13:32:40.098Z,13.05
2022-09-16T13:35:34.071Z,14.57
2022-09-16T13:38:21.095Z,14.55
2022-09-16T13:41:22.279Z,15.10
2022-09-16T13:44:29.073Z,12.52
2022-09-16T13:48:02.086Z,14.39
2022-09-16T13:51:07.089Z,14.85
2022-09-16T13:54:11.052Z,14.02
2022-09-16T13:57:12.735Z,16.35
2022-09-16T13:59:49.246Z,18.38
2022-09-16T14:02:45.151Z,13.50
2022-09-16T14:05:47.209Z,15.13
2022-09-16T14:08:38.051Z,15.07
2022-09-16T14:11:41.082Z,14.55
2022-09-16T14:14:48.234Z,13.80
2022-09-16T14:17:36.075Z,17.20
2022-09-16T14:20:33.093Z,15.07
2022-09-16T14:23:32.096Z,14.07
2022-09-16T14:26:20.072Z,15.40
2022-09-16T14:28:54.169Z,14.63
2022-09-16T14:31:41.110Z,16.50
2022-09-16T14:34:15.211Z,15.13
2022-09-16T14:37:03.102Z,15.82
2022-09-16T14:39:38.257Z,13.57
2022-09-16T14:42:28.072Z,16.20
2022-09-16T14:45:03.212Z,16.50
2022-09-16T14:47:52.799Z,15.93
2022-09-16T14:50:40.121Z,16.08
2022-09-16T14:54:02.007Z,18.35
2022-09-16T14:57:06.109Z,14.80
2022-09-16T14:59:43.225Z,16.27
2022-09-16T15:02:37.163Z,15.23
2022-09-16T15:05:22.237Z,13.80
2022-09-16T15:08:27.094Z,15.70
2022-09-16T15:11:05.219Z,14.45
2022-09-16T15:13:53.125Z,15.70
2022-09-16T15:16:36.131Z,16.00
2022-09-16T15:19:41.108Z,14.88
2022-09-16T15:22:28.123Z,16.23
2022-09-16T15:25:12.123Z,17.23
2022-09-16T15:28:06.110Z,17.15
2022-09-16T15:31:00.176Z,14.73
2022-09-16T15:33:40.117Z,14.85
2022-09-16T15:36:46.121Z,15.30
2022-09-16T15:39:46.109Z,14.90
2022-09-16T15:42:40.136Z,14.98
2022-09-16T15:45:27.118Z,15.43
2022-09-16T15:48:05.235Z,16.55
2022-09-16T15:51:07.116Z,15.15
2022-09-16T15:53:54.439Z,16.20
2022-09-16T15:56:46.144Z,16.60
2022-09-16T16:00:01.111Z,15.20
2022-09-16T16:03:12.143Z,17.73
2022-09-16T16:06:11.136Z,17.02
2022-09-16T16:08:59.142Z,15.25
2022-09-16T16:11:39.133Z,16.77
2022-09-16T16:14:33.149Z,16.05
2022-09-16T16:17:26.125Z,17.13
2022-09-16T16:19:59.230Z,17.02
2022-09-16T16:22:47.351Z,16.13
2022-09-16T16:25:21.225Z,17.05
2022-09-16T16:28:15.223Z,16.75
2022-09-16T16:31:21.252Z,15.32
2022-09-16T16:34:08.162Z,16.58
2022-09-16T16:36:41.242Z,16.00
2022-09-16T16:39:29.146Z,14.70
2022-09-16T16:42:05.522Z,14.70
2022-09-16T16:44:52.156Z,16.58
2022-09-16T16:47:32.645Z,15.57
2022-09-16T16:50:27.230Z,14.63
2022-09-16T16:53:14.160Z,17.10
2022-09-16T16:55:47.970Z,18.40
2022-09-16T16:58:38.608Z,17.88
2022-09-16T17:01:28.538Z,17.58
2022-09-16T17:04:24.160Z,21.27
2022-09-16T17:07:27.045Z,21.25
2022-09-16T17:10:14.166Z,19.83
2022-09-16T17:12:47.314Z,21.95
2022-09-16T17:15:34.229Z,22.73
2022-09-16T17:18:07.772Z,27.42
2022-09-16T17:20:54.164Z,23.90
2022-09-16T17:23:34.182Z,24.75
2022-09-16T17:26:28.174Z,22.23
2022-09-16T17:29:22.180Z,21.02
2022-09-16T17:32:16.246Z,20.38
2022-09-16T17:35:03.220Z,19.77
2022-09-16T17:37:37.910Z,17.58
2022-09-16T17:40:24.260Z,16.35
2022-09-16T17:42:58.289Z,17.30
2022-09-16T17:45:45.256Z,16.20
2022-09-16T17:48:25.220Z,16.30
2022-09-16T17:51:20.297Z,15.10
2022-09-16T17:54:07.224Z,14.40
2022-09-16T17:56:41.044Z,15.98
2022-09-16T17:59:28.246Z,16.45
2022-09-16T18:02:08.206Z,16.55
2022-09-16T18:05:02.284Z,19.75
2022-09-16T18:07:52.254Z,19.40
2022-09-16T18:10:25.311Z,19.40
2022-09-16T18:13:12.244Z,20.02
2022-09-16T18:15:52.185Z,21.38
2022-09-16T18:18:46.250Z,22.65
2022-09-16T18:21:34.188Z,21.38
2022-09-16T18:24:17.263Z,17.35
2022-09-16T18:27:04.245Z,18.45
2022-09-16T18:29:37.542Z,19.50
2022-09-16T18:32:24.246Z,21.08
2022-09-16T18:34:57.440Z,20.58
2022-09-16T18:37:44.244Z,17.85
2022-09-16T18:40:19.866Z,18.73
2022-09-16T18:43:06.248Z,19.20
2022-09-16T18:45:46.423Z,19.15
2022-09-16T18:48:33.223Z,18.65
2022-09-16T18:51:06.397Z,20.38
2022-09-16T18:53:54.266Z,21.05
2022-09-16T18:56:36.259Z,20.10
2022-09-16T18:59:27.552Z,18.27
2022-09-16T19:02:03.877Z,16.52
2022-09-16T19:04:51.234Z,17.23
2022-09-16T19:07:28.014Z,17.00
2022-09-16T19:10:15.231Z,17.10
2022-09-16T19:12:48.433Z,16.40
2022-09-16T19:15:35.222Z,18.27
2022-09-16T19:18:15.231Z,19.60
2022-09-16T19:21:03.226Z,18.98
2022-09-16T19:23:36.414Z,19.25
2022-09-16T19:26:42.245Z,17.58
2022-09-16T19:29:39.351Z,17.52
2022-09-16T19:32:33.294Z,17.67
2022-09-16T19:35:20.245Z,18.30
2022-09-16T19:38:02.977Z,17.55
2022-09-16T19:40:56.256Z,17.80
2022-09-16T19:43:43.252Z,17.05
2022-09-16T19:46:19.438Z,17.65
2022-09-16T19:49:06.279Z,17.75
2022-09-16T19:51:46.312Z,18.95
2022-09-16T19:54:40.245Z,17.45
2022-09-16T19:57:34.298Z,16.63
2022-09-16T20:00:29.417Z,18.42
2022-09-16T20:03:15.355Z,17.40
2022-09-16T20:06:20.297Z,19.98
2022-09-16T20:09:01.333Z,28.33
2022-09-16T20:11:51.253Z,21.58
2022-09-16T20:14:33.882Z,17.35
2022-09-16T20:17:20.295Z,17.75
2022-09-16T20:20:00.316Z,20.17
2022-09-16T20:22:54.320Z,18.52
2022-09-16T20:25:41.262Z,18.70
2022-09-16T20:28:14.386Z,19.25
2022-09-16T20:31:01.314Z,17.27
2022-09-16T20:33:35.361Z,17.48
2022-09-16T20:36:24.371Z,17.08
2022-09-16T20:38:59.662Z,18.08
2022-09-16T20:41:47.308Z,17.48
2022-09-16T20:44:21.425Z,18.67
2022-09-16T20:47:08.312Z,17.58
2022-09-16T20:49:41.412Z,17.58
2022-09-16T20:52:28.311Z,18.40
2022-09-16T20:55:06.199Z,17.02
2022-09-16T20:57:55.326Z,17.50
2022-09-16T21:00:35.323Z,14.85
2022-09-16T21:03:29.323Z,16.40
2022-09-16T21:06:27.323Z,17.90
2022-09-16T21:09:17.338Z,17.23
2022-09-16T21:11:51.427Z,17.08
2022-09-16T21:14:38.342Z,16.58
2022-09-16T21:17:11.532Z,18.95
2022-09-16T21:19:58.374Z,18.52
2022-09-16T21:22:31.408Z,17.70
2022-09-16T21:25:18.298Z,19.63
2022-09-16T21:27:51.411Z,19.02
2022-09-16T21:30:45.316Z,16.85
2022-09-16T21:33:33.316Z,16.52
2022-09-16T21:36:13.321Z,17.10
2022-09-16T21:39:00.400Z,17.35
2022-09-16T21:41:41.326Z,16.35
2022-09-16T21:44:35.317Z,18.00
2022-09-16T21:47:23.322Z,18.58
2022-09-16T21:49:56.457Z,16.90
2022-09-16T21:52:45.320Z,15.93
2022-09-16T21:55:19.438Z,17.90
2022-09-16T21:58:06.337Z,19.30
2022-09-16T22:00:39.490Z,17.80
2022-09-16T22:03:27.327Z,17.38
2022-09-16T22:06:05.409Z,18.33
2022-09-16T22:08:53.323Z,19.40
2022-09-16T22:11:30.436Z,18.15
2022-09-16T22:14:19.083Z,16.33
2022-09-16T22:16:53.404Z,18.98
2022-09-16T22:19:40.352Z,18.88
2022-09-16T22:22:13.412Z,17.13
2022-09-16T22:25:00.354Z,18.13
2022-09-16T22:27:33.453Z,18.77
2022-09-16T22:30:21.320Z,18.83
2022-09-16T22:32:54.445Z,17.27
2022-09-16T22:35:42.345Z,18.45
2022-09-16T22:38:15.429Z,18.90
2022-09-16T22:41:13.368Z,16.65
2022-09-16T22:43:49.454Z,16.02
2022-09-16T22:46:39.400Z,16.85
2022-09-16T22:49:12.528Z,18.75
2022-09-16T22:51:59.372Z,19.10
2022-09-16T22:54:32.454Z,18.77
2022-09-16T22:57:19.366Z,19.48
2022-09-16T22:59:52.438Z,17.77
2022-09-16T23:02:39.371Z,17.52
2022-09-16T23:05:20.373Z,19.80
2022-09-16T23:08:14.363Z,18.65
2022-09-16T23:11:02.354Z,18.10
2022-09-16T23:13:35.444Z,18.10
2022-09-16T23:16:33.464Z,18.85
2022-09-16T23:19:16.353Z,20.25
2022-09-16T23:22:05.413Z,18.38
2022-09-16T23:24:38.445Z,18.23
2022-09-16T23:27:27.444Z,18.38
2022-09-16T23:30:00.453Z,19.17
2022-09-16T23:32:47.370Z,18.55
2022-09-16T23:35:20.743Z,19.52
2022-09-16T23:38:07.370Z,19.55
2022-09-16T23:40:43.429Z,19.48
2022-09-16T23:43:32.365Z,18.27
2022-09-16T23:46:12.382Z,19.85
2022-09-16T23:49:06.361Z,19.33
2022-09-16T23:52:03.420Z,20.20
2022-09-16T23:54:50.344Z,18.35
2022-09-16T23:57:23.452Z,19.58
